Data for 03/14/2007

Time Sea-Level Adjusted Pressure Absolute Pressure Temperature Relative Humidity Dew Point   
(mb) (inHg) (mb) (inHg) (C) (F) (%) (C) (F)
00:05 1015 29.97 845 24.95 5.5 41.8 51 -4 24.9
00:10 1015 29.97 845 24.95 5.3 41.5 51 -4.1 24.6
00:15 1015 29.97 845 24.95 5.2 41.4 51 -4 24.8
00:20 1015 29.97 845 24.95 4.8 40.6 53 -4.1 24.6
00:25 1015 29.97 845 24.95 4.8 40.6 52 -4.3 24.3
00:30 1015 29.97 845 24.95 5.1 41.1 50 -4.4 24
00:35 1015 29.97 845 24.95 5.5 42 46 -5.1 22.7
00:40 1015 29.97 844 24.92 6 42.8 45 -5 23
00:45 1015 29.97 844 24.92 6 42.8 46 -4.7 23.6
00:50 1015 29.97 844 24.92 5.8 42.4 48 -4.5 23.9
00:55 1015 29.97 844 24.92 5.5 41.9 50 -4.1 24.6
01:00 1015 29.97 844 24.92 5.1 41.2 52 -3.9 24.9
01:05 1015 29.97 844 24.92 4.9 40.9 53 -3.9 25
01:10 1015 29.97 844 24.92 4.8 40.6 53 -3.9 25
01:15 1015 29.97 844 24.92 4.6 40.3 55 -3.7 25.3
01:20 1015 29.97 844 24.92 4.6 40.3 53 -4.1 24.6
01:25 1015 29.97 844 24.92 5 41 50 -4.5 23.8
01:30 1015 29.97 844 24.92 5.2 41.3 52 -4 24.8
01:35 1015 29.97 844 24.92 5.3 41.5 49 -4.6 23.8
01:40 1015 29.97 844 24.92 5.4 41.8 50 -4.2 24.4
01:45 1015 29.97 844 24.92 5.4 41.7 50 -4.2 24.4
01:50 1015 29.97 844 24.92 5.3 41.5 50 -4.3 24.3
01:55 1015 29.97 844 24.92 5.3 41.6 50 -4.3 24.3
02:00 1015 29.97 844 24.92 5.6 42 49 -4.3 24.3
02:05 1015 29.97 844 24.92 5.7 42.2 50 -4 24.8
02:10 1015 29.97 844 24.92 5.5 41.9 52 -3.5 25.7
02:15 1015 29.97 844 24.92 5.3 41.6 53 -3.5 25.7
02:20 1015 29.97 844 24.92 5.2 41.4 54 -3.3 26
02:25 1015 29.97 844 24.92 5.2 41.3 54 -3.3 26.1
02:30 1015 29.97 844 24.92 5 41 55 -3.3 26.1
02:35 1015 29.97 844 24.92 5 41 56 -3.2 26.3
02:40 1015 29.97 844 24.92 4.8 40.7 56 -3.2 26.2
02:45 1015 29.97 844 24.92 4.9 40.8 56 -3.3 26.1
02:50 1015 29.97 845 24.95 4.8 40.7 55 -3.5 25.8
02:55 1015 29.97 845 24.95 4.9 40.9 55 -3.4 25.8
03:00 1015 29.97 845 24.95 4.9 40.9 55 -3.3 26.1
03:05 1015 29.97 845 24.95 5 40.9 56 -3 26.5
03:10 1015 29.97 845 24.95 4.8 40.6 56 -3.2 26.2
03:15 1015 29.97 845 24.95 4.9 40.9 55 -3.2 26.2
03:20 1015 29.97 844 24.92 5.1 41.1 55 -3.3 26
03:25 1015 29.97 844 24.92 5.1 41.2 55 -3.3 26.1
03:30 1015 29.97 844 24.92 5.1 41.2 54 -3.3 26
03:35 1015 29.97 844 24.92 4.9 40.9 55 -3.3 26.1
03:40 1015 29.97 844 24.92 4.7 40.4 58 -2.8 26.9
03:45 1015 29.97 844 24.92 4.2 39.6 59 -3.2 26.2
03:50 1015 29.97 844 24.92 4.3 39.8 58 -3.3 26.1
03:55 1015 29.97 844 24.92 4.4 39.9 57 -3.3 26
04:00 1015 29.97 844 24.92 4.6 40.2 58 -2.9 26.7
04:05 1015 29.97 844 24.92 4.7 40.5 58 -2.8 26.9
04:10 1015 29.97 845 24.95 5 41.1 56 -3 26.6
04:15 1015 29.97 845 24.95 5.1 41.2 58 -2.5 27.4
04:20 1015 29.97 844 24.92 5 41 58 -2.6 27.4
04:25 1015 29.97 844 24.92 5 41 59 -2.4 27.6
04:30 1015 29.97 844 24.92 5 41 59 -2.3 27.9
04:35 1015 29.97 844 24.92 4.8 40.7 61 -2.1 28.2
04:40 1015 29.97 844 24.92 4.7 40.5 60 -2.3 27.9
04:45 1015 29.97 844 24.92 4.4 39.9 63 -2.1 28.2
04:50 1015 29.97 844 24.92 3.9 39.1 64 -2.2 28.1
04:55 1015 29.97 844 24.92 3.8 38.8 66 -2 28.4
05:00 1015 29.97 844 24.92 3.7 38.6 66 -2.2 28.1
05:05 1015 29.97 844 24.92 3.8 38.9 65 -2.2 28
05:10 1015 29.97 844 24.92 4.3 39.7 63 -2 28.3
05:15 1015 29.97 845 24.95 4.4 39.9 63 -2.1 28.3
05:20 1015 29.97 845 24.95 4.3 39.8 63 -2.1 28.2
05:25 1016 30 845 24.95 4.3 39.8 65 -1.6 29
05:30 1016 30 845 24.95 4.2 39.5 68 -1.3 29.7
05:35 1016 30 845 24.95 4.1 39.3 68 -1.3 29.6
05:40 1016 30 845 24.95 4 39.2 68 -1.3 29.6
05:45 1016 30 845 24.95 3.9 39 68 -1.5 29.4
05:50 1015 29.97 845 24.95 4 39.1 67 -1.6 29.1
05:55 1015 29.97 845 24.95 3.9 39 67 -1.6 29.2
06:00 1015 29.97 845 24.95 3.7 38.6 68 -1.6 29
06:05 1015 29.97 845 24.95 3.6 38.4 70 -1.4 29.6
06:10 1016 30 845 24.95 3.5 38.3 71 -1.3 29.7
06:15 1016 30 845 24.95 3.4 38.1 72 -1.2 29.8
06:20 1015 29.97 845 24.95 3.2 37.7 73 -1.1 30
06:25 1015 29.97 845 24.95 3 37.5 73 -1.3 29.6
06:30 1015 29.97 845 24.95 2.9 37.3 75 -1.1 29.9
06:35 1015 29.97 845 24.95 3 37.3 74 -1.2 29.8
06:40 1015 29.97 845 24.95 3.2 37.7 74 -1.1 30.1
06:45 1015 29.97 845 24.95 3.3 37.9 74 -0.9 30.3
06:50 1015 29.97 844 24.92 3.4 38 73 -0.9 30.3
06:55 1015 29.97 845 24.95 3.2 37.8 73 -1.1 30.1
07:00 1015 29.97 845 24.95 3.3 37.9 73 -1.1 30
07:05 1015 29.97 844 24.92 3.2 37.8 73 -1.1 30.1
07:10 1015 29.97 844 24.92 3 37.5 75 -1 30.3
07:15 1015 29.97 845 24.95 3.2 37.7 75 -0.9 30.5
07:20 1015 29.97 845 24.95 3.3 38 74 -0.9 30.4
07:25 1015 29.97 845 24.95 3.4 38.2 74 -0.8 30.6
07:30 1016 30 845 24.95 3.5 38.2 74 -0.7 30.7
07:35 1016 30 845 24.95 3.3 37.9 76 -0.5 31
07:40 1016 30 845 24.95 3.3 38 74 -0.8 30.6
07:45 1016 30 845 24.95 3.3 38 75 -0.7 30.7
07:50 1016 30 845 24.95 3.3 37.9 76 -0.5 31.2
07:55 1016 30 845 24.95 2.7 36.8 77 -1 30.3
08:00 1016 30 845 24.95 2.5 36.4 76 -1.4 29.5
08:05 1016 30 845 24.95 2.6 36.7 72 -2 28.4
08:10 1016 30 845 24.95 2.9 37.2 71 -1.7 28.9
08:15 1016 30 845 24.95 3 37.4 68 -2.3 27.9
08:20 1016 30 845 24.95 3.3 38 67 -2.2 28
08:25 1016 30 845 24.95 3.3 37.9 67 -2.2 28
08:30 1016 30 845 24.95 3.4 38.1 65 -2.5 27.5
08:35 1016 30 845 24.95 3.6 38.5 64 -2.6 27.3
08:40 1016 30 845 24.95 3.7 38.7 65 -2.3 27.9
08:45 1016 30 845 24.95 3.7 38.7 63 -2.6 27.3
08:50 1016 30 845 24.95 3.8 38.9 62 -2.8 26.9
08:55 1016 30 845 24.95 3.8 38.9 62 -2.7 27.1
09:00 1016 30 845 24.95 3.8 38.9 63 -2.6 27.3
09:05 1016 30 845 24.95 3.8 38.8 63 -2.5 27.4
09:10 1016 30 845 24.95 3.7 38.7 64 -2.5 27.5
09:15 1016 30 845 24.95 3.7 38.6 64 -2.4 27.6
09:20 1016 30 845 24.95 3.7 38.7 63 -2.6 27.3
09:25 1016 30 845 24.95 3.6 38.6 65 -2.4 27.7
09:30 1016 30 845 24.95 3.6 38.5 62 -2.9 26.8
09:35 1016 30 845 24.95 3.8 38.8 62 -2.9 26.9
09:40 1016 30 845 24.95 3.8 38.9 63 -2.6 27.4
09:45 1016 30 845 24.95 3.9 39 63 -2.4 27.7
09:50 1016 30 845 24.95 3.9 39 64 -2.4 27.7
09:55 1016 30 845 24.95 4.1 39.3 62 -2.5 27.5
10:00 1016 30 845 24.95 4.5 40 61 -2.4 27.7
10:05 1016 30 845 24.95 4.6 40.3 61 -2.3 27.8
10:10 1016 30 845 24.95 4.9 40.8 59 -2.4 27.7
10:15 1016 30 845 24.95 5.1 41.1 58 -2.5 27.6
10:20 1016 30 845 24.95 5.4 41.6 58 -2.3 27.9
10:25 1016 30 845 24.95 5.3 41.6 58 -2.3 27.8
10:30 1016 30 845 24.95 5.3 41.5 57 -2.5 27.6
10:35 1015 29.97 845 24.95 5.6 42.1 57 -2.1 28.2
10:40 1015 29.97 845 24.95 6.6 43.8 52 -2.5 27.5
10:45 1015 29.97 845 24.95 6.7 44.1 52 -2.4 27.6
10:50 1015 29.97 845 24.95 6.8 44.2 51 -2.5 27.4
10:55 1015 29.97 845 24.95 6.7 44 51 -2.7 27.1
11:00 1015 29.97 844 24.92 6.5 43.6 52 -2.5 27.4
11:05 1015 29.97 844 24.92 6 42.9 53 -2.8 27
11:10 1015 29.97 844 24.92 6.2 43.2 53 -2.7 27.1
11:15 1015 29.97 844 24.92 6.5 43.6 53 -2.5 27.5
11:20 1015 29.97 844 24.92 6.7 44.1 54 -1.9 28.5
11:25 1015 29.97 844 24.92 7.1 44.7 50 -2.6 27.3
11:30 1015 29.97 844 24.92 7.7 45.8 50 -2 28.4
11:35 1015 29.97 844 24.92 7.5 45.5 51 -2.1 28.3
11:40 1015 29.97 844 24.92 7.4 45.4 50 -2.3 27.8
11:45 1015 29.97 844 24.92 7.9 46.1 51 -1.6 29.1
11:50 1015 29.97 844 24.92 7.5 45.4 50 -2.2 28.1
11:55 1015 29.97 844 24.92 8 46.4 49 -1.9 28.5
12:00 1015 29.97 844 24.92 8.5 47.3 47 -2.1 28.2
12:05 1015 29.97 844 24.92 8.5 47.4 46 -2.4 27.7
12:10 1015 29.97 844 24.92 8.7 47.6 45 -2.5 27.5
12:15 1015 29.97 844 24.92 8.7 47.7 44 -2.9 26.8
12:20 1014 29.94 844 24.92 8.7 47.7 44 -2.8 26.9
12:25 1014 29.94 843 24.89 8.5 47.2 45 -2.7 27.2
12:30 1014 29.94 843 24.89 8.8 47.9 43 -3.1 26.4
12:35 1014 29.94 843 24.89 8.8 47.8 43 -3.1 26.5
12:40 1014 29.94 843 24.89 8.9 48 42 -3.4 25.9
12:45 1014 29.94 843 24.89 9.2 48.6 34 -5.7 21.8
12:50 1014 29.94 843 24.89 9.5 49.1 30 -7.1 19.2
12:55 1014 29.94 843 24.89 9.5 49.1 27 -8.6 16.6
13:00 1014 29.94 843 24.89 9.6 49.2 27 -8.6 16.6
13:05 1014 29.94 843 24.89 9.6 49.3 25 -9.5 14.9
13:10 1014 29.94 843 24.89 10.8 51.4 23 -9.5 15
13:15 1014 29.94 843 24.89 11.2 52.1 24 -8.7 16.3
13:20 1014 29.94 843 24.89 11.6 52.9 23 -8.7 16.3
13:25 1014 29.94 843 24.89 11.9 53.3 23 -8.6 16.6
13:30 1013 29.91 843 24.89 11.2 52.2 21 -10.1 13.9
13:35 1013 29.91 843 24.89 10.6 51.1 22 -10 14
13:40 1013 29.91 843 24.89 10.8 51.5 21 -11 12.3
13:45 1013 29.91 843 24.89 10.6 51.1 21 -11 12.2
13:50 1013 29.91 842 24.86 10.7 51.3 20 -11.2 11.8
13:55 1013 29.91 842 24.86 10.5 51 21 -10.6 12.9
14:00 1013 29.91 842 24.86 10.2 50.4 22 -10.6 12.8
14:05 1013 29.91 842 24.86 10.3 50.6 22 -10.4 13.3
14:10 1013 29.91 842 24.86 10.5 51 21 -10.7 12.8
14:15 1013 29.91 842 24.86 10.2 50.4 20 -11.7 10.9
14:20 1013 29.91 842 24.86 10.8 51.4 21 -10.9 12.3
14:25 1013 29.91 842 24.86 11.1 52 16 -13.7 7.3
14:30 1013 29.91 842 24.86 11.1 52.1 17 -13 8.6
14:35 1013 29.91 842 24.86 11 51.9 16 -13.8 7.2
14:40 1013 29.91 842 24.86 11 51.8 17 -13.2 8.2
14:45 1013 29.91 842 24.86 11.3 52.4 16 -14 6.7
14:50 1013 29.91 842 24.86 11.2 52.2 15 -14.6 5.7
14:55 1013 29.91 842 24.86 11.2 52.1 16 -13.8 7.1
15:00 1013 29.91 842 24.86 10.9 51.7 16 -14.1 6.7
15:05 1013 29.91 842 24.86 10.7 51.3 18 -12.6 9.2
15:10 1013 29.91 843 24.89 10.6 51 19 -12.2 10.1
15:15 1013 29.91 843 24.89 10.7 51.3 16 -13.8 7.1
15:20 1013 29.91 843 24.89 10.6 51.1 16 -13.9 6.9
15:25 1014 29.94 843 24.89 10.2 50.4 19 -12.7 9.2
15:30 1014 29.94 843 24.89 10.4 50.7 18 -12.8 8.9
15:35 1014 29.94 843 24.89 10.7 51.3 16 -14.3 6.2
15:40 1013 29.91 843 24.89 10.8 51.4 17 -13.1 8.4
15:45 1014 29.94 843 24.89 11.2 52.1 16 -13.9 7
15:50 1014 29.94 843 24.89 10.8 51.5 15 -14.8 5.3
15:55 1014 29.94 843 24.89 10.7 51.2 17 -13.8 7.2
16:00 1014 29.94 843 24.89 11 51.8 17 -13.3 8
16:05 1014 29.94 843 24.89 11 51.9 16 -14 6.8
16:10 1014 29.94 843 24.89 11 51.8 15 -14.4 6.1
16:15 1014 29.94 843 24.89 10.7 51.2 16 -14.4 6.1
16:20 1014 29.94 843 24.89 10.7 51.3 17 -13.4 7.9
16:25 1014 29.94 843 24.89 10.9 51.5 16 -13.8 7.2
16:30 1014 29.94 843 24.89 11.1 51.9 16 -13.7 7.4
16:35 1014 29.94 843 24.89 10.9 51.7 16 -13.7 7.3
16:40 1014 29.94 843 24.89 11 51.8 17 -13.2 8.3
16:45 1014 29.94 843 24.89 10.7 51.2 16 -14.5 5.9
16:50 1014 29.94 843 24.89 10.9 51.5 16 -14.3 6.3
16:55 1014 29.94 843 24.89 10.7 51.2 16 -14 6.7
17:00 1014 29.94 843 24.89 10.5 51 15 -14.9 5.2
17:05 1014 29.94 844 24.92 10.5 50.9 16 -14.7 5.6
17:10 1014 29.94 844 24.92 10.4 50.7 15 -14.8 5.3
17:15 1015 29.97 844 24.92 10.3 50.5 16 -14.7 5.5
17:20 1015 29.97 844 24.92 10.5 50.8 15 -14.8 5.3
17:25 1015 29.97 844 24.92 10.2 50.4 17 -13.7 7.3
17:30 1015 29.97 844 24.92 10.2 50.3 16 -15 5
17:35 1015 29.97 844 24.92 10.1 50.2 15 -15.8 3.5
17:40 1015 29.97 844 24.92 10 50 14 -16 3.2
17:45 1015 29.97 844 24.92 10.1 50.1 14 -16.1 3.1
17:50 1015 29.97 844 24.92 10 50.1 15 -15.3 4.4
17:55 1015 29.97 844 24.92 9.9 49.8 14 -16.4 2.4
18:00 1015 29.97 844 24.92 9.8 49.6 15 -16 3.1
18:05 1015 29.97 844 24.92 9.5 49.1 14 -17.1 1.3
18:10 1015 29.97 844 24.92 9.4 49 14 -16.9 1.5
18:15 1015 29.97 844 24.92 9.3 48.7 14 -16.8 1.8
18:20 1015 29.97 845 24.95 9.3 48.8 15 -16.1 3
18:25 1015 29.97 845 24.95 9.3 48.8 15 -16.1 3.1
18:30 1016 30 845 24.95 9.2 48.5 15 -16 3.2
18:35 1016 30 845 24.95 8.5 47.4 25 -10.3 13.5
18:40 1016 30 845 24.95 7.1 44.9 27 -10.7 12.8
18:45 1016 30 845 24.95 6.5 43.7 27 -11.1 12
18:50 1016 30 845 24.95 6.3 43.4 28 -10.8 12.5
18:55 1016 30 845 24.95 6 42.9 28 -11.1 12.1
19:00 1016 30 845 24.95 5.8 42.4 29 -11.2 11.9
19:05 1016 30 846 24.98 5.5 41.8 29 -11.3 11.7
19:10 1017 30.03 846 24.98 5.3 41.5 29 -11.2 11.9
19:15 1017 30.03 846 24.98 5.1 41.2 29 -11.3 11.6
19:20 1017 30.03 846 24.98 4.8 40.6 30 -11.3 11.7
19:25 1017 30.03 846 24.98 4.5 40.2 30 -11.5 11.3
19:30 1017 30.03 846 24.98 4.5 40.1 30 -11.6 11.1
19:35 1017 30.03 846 24.98 4.4 39.9 30 -11.7 10.9
19:40 1017 30.03 846 24.98 4.3 39.7 31 -11.3 11.7
19:45 1017 30.03 847 25.01 4.1 39.5 32 -11.2 11.9
19:50 1017 30.03 847 25.01 4 39.2 32 -11.4 11.5
19:55 1018 30.06 847 25.01 4 39.1 32 -11.2 11.8
20:00 1018 30.06 847 25.01 3.7 38.6 33 -11.2 11.9
20:05 1018 30.06 847 25.01 3.5 38.3 33 -11.2 11.8
20:10 1018 30.06 847 25.01 3.4 38.1 33 -11.5 11.3
20:15 1018 30.06 848 25.04 3.3 38 33 -11.4 11.5
20:20 1018 30.06 848 25.04 3.3 38 34 -11.2 11.9
20:25 1019 30.09 848 25.04 3.3 37.9 34 -11 12.1
20:30 1019 30.09 848 25.04 2.8 37 40 -9.6 14.7
20:35 1019 30.09 848 25.04 1.9 35.4 43 -9.5 14.9
20:40 1019 30.09 848 25.04 1.7 35 42 -9.8 14.4
20:45 1019 30.09 848 25.04 1.6 34.9 43 -9.7 14.6
20:50 1019 30.09 849 25.07 1.3 34.3 44 -9.7 14.6
20:55 1020 30.12 849 25.07 1 33.8 46 -9.5 14.9
21:00 1020 30.12 849 25.07 1.1 34 41 -10.6 12.9
21:05 1020 30.12 849 25.07 1.3 34.4 41 -10.6 12.9
21:10 1020 30.12 849 25.07 1.4 34.6 41 -10.3 13.4
21:15 1020 30.12 849 25.07 1.4 34.5 40 -10.7 12.7
21:20 1020 30.12 849 25.07 1.5 34.7 40 -10.6 12.8
21:25 1020 30.12 849 25.07 1.3 34.4 41 -10.5 13.2
21:30 1020 30.12 849 25.07 1.2 34.1 41 -10.8 12.5
21:35 1020 30.12 850 25.1 1.3 34.3 39 -11.2 11.8
21:40 1020 30.12 850 25.1 1.5 34.6 38 -11.5 11.4
21:45 1020 30.12 850 25.1 1.6 34.8 36 -12 10.4
21:50 1021 30.15 850 25.1 1.7 35.1 37 -11.6 11.2
21:55 1021 30.15 850 25.1 1.6 34.8 38 -11.4 11.5
22:00 1021 30.15 850 25.1 1.5 34.7 37 -11.6 11.2
22:05 1021 30.15 850 25.1 1.5 34.8 36 -12.1 10.2
22:10 1021 30.15 850 25.1 1.6 34.9 35 -12.4 9.8
22:15 1021 30.15 850 25.1 1.6 34.9 35 -12.3 9.9
22:20 1021 30.15 850 25.1 1.6 34.9 34 -12.5 9.6
22:25 1021 30.15 850 25.1 1.7 35 35 -12.4 9.7
22:30 1021 30.15 850 25.1 1.7 35 35 -12.4 9.8
22:35 1021 30.15 850 25.1 1.5 34.8 35 -12.3 9.9
22:40 1021 30.15 850 25.1 1.4 34.5 36 -12.2 10.1
22:45 1021 30.15 850 25.1 1.3 34.4 36 -12.2 10
22:50 1021 30.15 850 25.1 1.2 34.2 37 -11.9 10.6
22:55 1021 30.15 851 25.13 1.1 34 38 -11.7 10.9
23:00 1021 30.15 851 25.13 1 33.9 38 -11.7 11
23:05 1021 30.15 851 25.13 0.9 33.7 39 -11.6 11.2
23:10 1022 30.18 851 25.13 0.9 33.6 39 -11.5 11.3
23:15 1022 30.18 851 25.13 0.8 33.4 39 -11.7 10.9
23:20 1022 30.18 851 25.13 0.8 33.5 39 -11.7 10.9
23:25 1022 30.18 851 25.13 0.8 33.4 38 -11.8 10.7
23:30 1022 30.18 851 25.13 0.8 33.4 38 -11.8 10.7
23:35 1022 30.18 851 25.13 0.7 33.3 38 -12 10.4
23:40 1022 30.18 851 25.13 0.8 33.4 38 -11.9 10.6
23:45 1022 30.18 851 25.13 0.7 33.2 39 -11.9 10.6
23:50 1022 30.18 851 25.13 0.6 33.1 39 -11.9 10.5
23:55 1022 30.18 851 25.13 0.6 33.1 39 -11.8 10.8
24:00 1022 30.18 851 25.13 0.6 33.1 40 -11.5 11.4